sensor_id;sensor_type;location;lat;lon;timestamp;temperature;humidity
9305;DHT22;4690;52.422;13.486;2022-10-13T00:04:47;6.00;99.90
9305;DHT22;4690;52.422;13.486;2022-10-13T00:07:13;6.00;99.90
9305;DHT22;4690;52.422;13.486;2022-10-13T00:09:38;6.00;99.90
9305;DHT22;4690;52.422;13.486;2022-10-13T00:12:04;5.90;99.90
9305;DHT22;4690;52.422;13.486;2022-10-13T00:14:30;5.90;99.90
9305;DHT22;4690;52.422;13.486;2022-10-13T00:16:56;5.90;99.90
9305;DHT22;4690;52.422;13.486;2022-10-13T00:19:22;5.80;99.90
9305;DHT22;4690;52.422;13.486;2022-10-13T00:21:47;5.80;99.90
9305;DHT22;4690;52.422;13.486;2022-10-13T00:24:13;5.80;99.90
9305;DHT22;4690;52.422;13.486;2022-10-13T00:26:39;5.80;99.90
9305;DHT22;4690;52.422;13.486;2022-10-13T00:29:04;5.80;99.90
9305;DHT22;4690;52.422;13.486;2022-10-13T00:31:31;5.80;99.90
9305;DHT22;4690;52.422;13.486;2022-10-13T00:33:58;5.80;99.90
9305;DHT22;4690;52.422;13.486;2022-10-13T00:36:25;5.80;99.90
9305;DHT22;4690;52.422;13.486;2022-10-13T00:38:52;5.80;99.90
9305;DHT22;4690;52.422;13.486;2022-10-13T00:41:19;5.70;99.90
9305;DHT22;4690;52.422;13.486;2022-10-13T00:43:55;5.70;99.90
9305;DHT22;4690;52.422;13.486;2022-10-13T00:46:27;5.70;99.90
9305;DHT22;4690;52.422;13.486;2022-10-13T00:48:58;5.70;99.90
9305;DHT22;4690;52.422;13.486;2022-10-13T00:51:28;5.70;99.90
9305;DHT22;4690;52.422;13.486;2022-10-13T00:54:06;5.70;99.90
9305;DHT22;4690;52.422;13.486;2022-10-13T00:56:35;5.70;99.90
9305;DHT22;4690;52.422;13.486;2022-10-13T00:59:04;5.70;99.90
9305;DHT22;4690;52.422;13.486;2022-10-13T01:01:36;5.60;99.90
9305;DHT22;4690;52.422;13.486;2022-10-13T01:04:02;5.60;99.90
9305;DHT22;4690;52.422;13.486;2022-10-13T01:06:28;5.60;99.90
9305;DHT22;4690;52.422;13.486;2022-10-13T01:08:54;5.60;99.90
9305;DHT22;4690;52.422;13.486;2022-10-13T01:14:39;5.60;99.90
9305;DHT22;4690;52.422;13.486;2022-10-13T01:17:36;5.50;99.90
9305;DHT22;4690;52.422;13.486;2022-10-13T01:20:31;5.50;99.90
9305;DHT22;4690;52.422;13.486;2022-10-13T01:38:18;5.40;99.90
9305;DHT22;4690;52.422;13.486;2022-10-13T01:44:01;5.40;99.90
9305;DHT22;4690;52.422;13.486;2022-10-13T01:46:42;5.30;99.90
9305;DHT22;4690;52.422;13.486;2022-10-13T01:49:14;5.30;99.90
9305;DHT22;4690;52.422;13.486;2022-10-13T01:51:43;5.30;99.90
9305;DHT22;4690;52.422;13.486;2022-10-13T01:54:09;5.40;99.90
9305;DHT22;4690;52.422;13.486;2022-10-13T01:56:35;5.40;99.90
9305;DHT22;4690;52.422;13.486;2022-10-13T01:59:04;5.40;99.90
9305;DHT22;4690;52.422;13.486;2022-10-13T02:04:54;5.50;99.90
9305;DHT22;4690;52.422;13.486;2022-10-13T02:07:36;5.60;99.90
9305;DHT22;4690;52.422;13.486;2022-10-13T02:10:39;5.70;99.90
9305;DHT22;4690;52.422;13.486;2022-10-13T02:13:12;5.80;99.90
9305;DHT22;4690;52.422;13.486;2022-10-13T02:15:46;5.90;99.90
9305;DHT22;4690;52.422;13.486;2022-10-13T02:18:20;5.90;99.90
9305;DHT22;4690;52.422;13.486;2022-10-13T02:20:50;6.00;99.90
9305;DHT22;4690;52.422;13.486;2022-10-13T02:23:17;6.00;99.90
9305;DHT22;4690;52.422;13.486;2022-10-13T02:25:44;6.10;99.90
9305;DHT22;4690;52.422;13.486;2022-10-13T02:28:12;6.10;99.90
9305;DHT22;4690;52.422;13.486;2022-10-13T02:30:40;6.20;99.90
9305;DHT22;4690;52.422;13.486;2022-10-13T02:33:06;6.20;99.90
9305;DHT22;4690;52.422;13.486;2022-10-13T02:35:33;6.20;99.90
9305;DHT22;4690;52.422;13.486;2022-10-13T02:37:59;6.10;99.90
9305;DHT22;4690;52.422;13.486;2022-10-13T02:40:26;6.10;99.90
9305;DHT22;4690;52.422;13.486;2022-10-13T02:42:52;6.10;99.90
9305;DHT22;4690;52.422;13.486;2022-10-13T02:45:18;6.10;99.90
9305;DHT22;4690;52.422;13.486;2022-10-13T02:47:44;6.00;99.90
9305;DHT22;4690;52.422;13.486;2022-10-13T02:50:10;6.00;99.90
9305;DHT22;4690;52.422;13.486;2022-10-13T02:52:36;5.90;99.90
9305;DHT22;4690;52.422;13.486;2022-10-13T02:55:03;5.80;99.90
9305;DHT22;4690;52.422;13.486;2022-10-13T02:57:30;5.80;99.90
9305;DHT22;4690;52.422;13.486;2022-10-13T02:59:55;5.70;99.90
9305;DHT22;4690;52.422;13.486;2022-10-13T03:02:21;5.60;99.90
9305;DHT22;4690;52.422;13.486;2022-10-13T03:04:48;5.70;99.90
9305;DHT22;4690;52.422;13.486;2022-10-13T03:07:14;5.60;99.90
9305;DHT22;4690;52.422;13.486;2022-10-13T03:09:40;5.60;99.90
9305;DHT22;4690;52.422;13.486;2022-10-13T03:12:06;5.60;99.90
9305;DHT22;4690;52.422;13.486;2022-10-13T03:14:31;5.60;99.90
9305;DHT22;4690;52.422;13.486;2022-10-13T03:16:57;5.50;99.90
9305;DHT22;4690;52.422;13.486;2022-10-13T03:19:23;5.50;99.90
9305;DHT22;4690;52.422;13.486;2022-10-13T03:21:49;5.40;99.90
9305;DHT22;4690;52.422;13.486;2022-10-13T03:24:14;5.40;99.90
9305;DHT22;4690;52.422;13.486;2022-10-13T03:26:40;5.40;99.90
9305;DHT22;4690;52.422;13.486;2022-10-13T03:29:06;5.40;99.90
9305;DHT22;4690;52.422;13.486;2022-10-13T03:31:31;5.40;99.90
9305;DHT22;4690;52.422;13.486;2022-10-13T03:33:57;5.40;99.90
9305;DHT22;4690;52.422;13.486;2022-10-13T03:36:23;5.40;99.90
9305;DHT22;4690;52.422;13.486;2022-10-13T03:38:48;5.40;99.90
9305;DHT22;4690;52.422;13.486;2022-10-13T03:41:16;5.30;99.90
9305;DHT22;4690;52.422;13.486;2022-10-13T03:43:43;5.30;99.90
9305;DHT22;4690;52.422;13.486;2022-10-13T03:46:14;5.30;99.90
9305;DHT22;4690;52.422;13.486;2022-10-13T03:48:42;5.30;99.90
9305;DHT22;4690;52.422;13.486;2022-10-13T03:51:11;5.30;99.90
9305;DHT22;4690;52.422;13.486;2022-10-13T03:53:38;5.20;99.90
9305;DHT22;4690;52.422;13.486;2022-10-13T03:56:04;5.20;99.90
9305;DHT22;4690;52.422;13.486;2022-10-13T03:58:33;5.30;99.90
9305;DHT22;4690;52.422;13.486;2022-10-13T04:01:03;5.20;99.90
9305;DHT22;4690;52.422;13.486;2022-10-13T04:03:30;5.20;99.90
9305;DHT22;4690;52.422;13.486;2022-10-13T04:06:02;5.10;99.90
9305;DHT22;4690;52.422;13.486;2022-10-13T04:08:29;5.20;99.90
9305;DHT22;4690;52.422;13.486;2022-10-13T04:11:00;5.20;99.90
9305;DHT22;4690;52.422;13.486;2022-10-13T04:13:28;5.20;99.90
9305;DHT22;4690;52.422;13.486;2022-10-13T04:15:53;5.20;99.90
9305;DHT22;4690;52.422;13.486;2022-10-13T04:18:19;5.20;99.90
9305;DHT22;4690;52.422;13.486;2022-10-13T04:20:45;5.30;99.90
9305;DHT22;4690;52.422;13.486;2022-10-13T04:23:11;5.20;99.90
9305;DHT22;4690;52.422;13.486;2022-10-13T04:25:37;5.30;99.90
9305;DHT22;4690;52.422;13.486;2022-10-13T04:28:05;5.30;99.90
9305;DHT22;4690;52.422;13.486;2022-10-13T04:30:34;5.30;99.90
9305;DHT22;4690;52.422;13.486;2022-10-13T04:33:01;5.30;99.90
9305;DHT22;4690;52.422;13.486;2022-10-13T04:35:27;5.40;99.90
9305;DHT22;4690;52.422;13.486;2022-10-13T04:37:53;5.40;99.90
9305;DHT22;4690;52.422;13.486;2022-10-13T04:40:21;5.50;99.90
9305;DHT22;4690;52.422;13.486;2022-10-13T04:42:47;5.50;99.90
9305;DHT22;4690;52.422;13.486;2022-10-13T04:45:13;5.60;99.90
9305;DHT22;4690;52.422;13.486;2022-10-13T04:47:38;5.60;99.90
9305;DHT22;4690;52.422;13.486;2022-10-13T04:50:04;5.60;99.90
9305;DHT22;4690;52.422;13.486;2022-10-13T04:52:30;5.70;99.90
9305;DHT22;4690;52.422;13.486;2022-10-13T04:54:57;5.70;99.90
9305;DHT22;4690;52.422;13.486;2022-10-13T04:57:23;5.70;99.90
9305;DHT22;4690;52.422;13.486;2022-10-13T04:59:49;5.70;99.90
9305;DHT22;4690;52.422;13.486;2022-10-13T05:02:14;5.70;99.90
9305;DHT22;4690;52.422;13.486;2022-10-13T05:04:40;5.70;99.90
9305;DHT22;4690;52.422;13.486;2022-10-13T05:07:06;5.70;99.90
9305;DHT22;4690;52.422;13.486;2022-10-13T05:09:31;5.80;99.90
9305;DHT22;4690;52.422;13.486;2022-10-13T05:11:57;5.80;99.90
9305;DHT22;4690;52.422;13.486;2022-10-13T05:14:23;5.80;99.90
9305;DHT22;4690;52.422;13.486;2022-10-13T05:16:48;5.90;99.90
9305;DHT22;4690;52.422;13.486;2022-10-13T05:19:14;5.90;99.90
9305;DHT22;4690;52.422;13.486;2022-10-13T05:21:40;5.90;99.90
9305;DHT22;4690;52.422;13.486;2022-10-13T05:24:06;5.90;99.90
9305;DHT22;4690;52.422;13.486;2022-10-13T05:26:37;5.90;99.90
9305;DHT22;4690;52.422;13.486;2022-10-13T05:29:04;5.90;99.90
9305;DHT22;4690;52.422;13.486;2022-10-13T05:31:31;6.00;99.90
9305;DHT22;4690;52.422;13.486;2022-10-13T05:33:58;6.00;99.90
9305;DHT22;4690;52.422;13.486;2022-10-13T05:36:27;6.10;99.90
9305;DHT22;4690;52.422;13.486;2022-10-13T05:38:57;6.10;99.90
9305;DHT22;4690;52.422;13.486;2022-10-13T05:41:25;6.10;99.90
9305;DHT22;4690;52.422;13.486;2022-10-13T05:43:54;6.20;99.90
9305;DHT22;4690;52.422;13.486;2022-10-13T05:46:23;6.20;99.90
9305;DHT22;4690;52.422;13.486;2022-10-13T05:48:49;6.20;99.90
9305;DHT22;4690;52.422;13.486;2022-10-13T05:51:20;6.30;99.90
9305;DHT22;4690;52.422;13.486;2022-10-13T05:53:52;6.40;99.90
9305;DHT22;4690;52.422;13.486;2022-10-13T05:56:26;6.40;99.90
9305;DHT22;4690;52.422;13.486;2022-10-13T05:59:00;6.50;99.90
9305;DHT22;4690;52.422;13.486;2022-10-13T06:01:31;6.60;99.90
9305;DHT22;4690;52.422;13.486;2022-10-13T06:04:03;6.60;99.90
9305;DHT22;4690;52.422;13.486;2022-10-13T06:06:33;6.70;99.90
9305;DHT22;4690;52.422;13.486;2022-10-13T06:08:59;6.70;99.90
9305;DHT22;4690;52.422;13.486;2022-10-13T06:11:26;6.80;99.90
9305;DHT22;4690;52.422;13.486;2022-10-13T06:13:52;6.80;99.90
9305;DHT22;4690;52.422;13.486;2022-10-13T06:16:17;6.80;99.90
9305;DHT22;4690;52.422;13.486;2022-10-13T06:18:43;6.90;99.90
9305;DHT22;4690;52.422;13.486;2022-10-13T06:21:09;6.90;99.90
9305;DHT22;4690;52.422;13.486;2022-10-13T06:23:35;6.90;99.90
9305;DHT22;4690;52.422;13.486;2022-10-13T06:26:00;6.90;99.90
9305;DHT22;4690;52.422;13.486;2022-10-13T06:28:26;7.00;99.90
9305;DHT22;4690;52.422;13.486;2022-10-13T06:30:52;7.00;99.90
9305;DHT22;4690;52.422;13.486;2022-10-13T06:33:20;7.00;99.90
9305;DHT22;4690;52.422;13.486;2022-10-13T06:35:46;7.00;99.90
9305;DHT22;4690;52.422;13.486;2022-10-13T06:38:12;7.10;99.90
9305;DHT22;4690;52.422;13.486;2022-10-13T06:40:38;7.10;99.90
9305;DHT22;4690;52.422;13.486;2022-10-13T06:43:04;7.10;99.90
9305;DHT22;4690;52.422;13.486;2022-10-13T06:45:29;7.10;99.90
9305;DHT22;4690;52.422;13.486;2022-10-13T06:47:55;7.20;99.90
9305;DHT22;4690;52.422;13.486;2022-10-13T06:50:22;7.20;99.90
9305;DHT22;4690;52.422;13.486;2022-10-13T06:52:47;7.20;99.90
9305;DHT22;4690;52.422;13.486;2022-10-13T06:55:14;7.30;99.90
9305;DHT22;4690;52.422;13.486;2022-10-13T06:57:40;7.30;99.90
9305;DHT22;4690;52.422;13.486;2022-10-13T07:00:06;7.30;99.90
9305;DHT22;4690;52.422;13.486;2022-10-13T07:02:32;7.40;99.90
9305;DHT22;4690;52.422;13.486;2022-10-13T07:04:58;7.50;99.90
9305;DHT22;4690;52.422;13.486;2022-10-13T07:07:24;7.50;99.90
9305;DHT22;4690;52.422;13.486;2022-10-13T07:09:50;7.60;99.90
9305;DHT22;4690;52.422;13.486;2022-10-13T07:12:15;7.70;99.90
9305;DHT22;4690;52.422;13.486;2022-10-13T07:14:41;7.70;99.90
9305;DHT22;4690;52.422;13.486;2022-10-13T07:17:07;7.70;99.90
9305;DHT22;4690;52.422;13.486;2022-10-13T07:19:33;7.80;99.90
9305;DHT22;4690;52.422;13.486;2022-10-13T07:21:58;7.80;99.90
9305;DHT22;4690;52.422;13.486;2022-10-13T07:24:24;7.90;99.90
9305;DHT22;4690;52.422;13.486;2022-10-13T07:26:51;7.90;99.90
9305;DHT22;4690;52.422;13.486;2022-10-13T07:29:16;8.00;99.90
9305;DHT22;4690;52.422;13.486;2022-10-13T07:31:43;8.10;99.90
9305;DHT22;4690;52.422;13.486;2022-10-13T07:34:10;8.20;99.90
9305;DHT22;4690;52.422;13.486;2022-10-13T07:36:35;8.40;99.90
9305;DHT22;4690;52.422;13.486;2022-10-13T07:39:04;8.70;99.90
9305;DHT22;4690;52.422;13.486;2022-10-13T07:41:30;8.80;99.90
9305;DHT22;4690;52.422;13.486;2022-10-13T07:43:56;9.00;99.90
9305;DHT22;4690;52.422;13.486;2022-10-13T07:46:22;9.10;99.90
9305;DHT22;4690;52.422;13.486;2022-10-13T07:48:48;9.30;99.90
9305;DHT22;4690;52.422;13.486;2022-10-13T07:51:17;9.30;99.90
9305;DHT22;4690;52.422;13.486;2022-10-13T07:53:42;9.30;99.90
9305;DHT22;4690;52.422;13.486;2022-10-13T07:56:11;9.30;99.90
9305;DHT22;4690;52.422;13.486;2022-10-13T07:58:39;9.60;99.90
9305;DHT22;4690;52.422;13.486;2022-10-13T08:01:07;9.80;99.90
9305;DHT22;4690;52.422;13.486;2022-10-13T08:03:34;10.10;99.90
9305;DHT22;4690;52.422;13.486;2022-10-13T08:06:02;10.30;99.90
9305;DHT22;4690;52.422;13.486;2022-10-13T08:08:29;10.30;99.90
9305;DHT22;4690;52.422;13.486;2022-10-13T08:11:04;10.50;99.90
9305;DHT22;4690;52.422;13.486;2022-10-13T08:13:32;10.80;99.90
9305;DHT22;4690;52.422;13.486;2022-10-13T08:16:02;11.00;99.90
9305;DHT22;4690;52.422;13.486;2022-10-13T08:18:29;11.10;99.90
9305;DHT22;4690;52.422;13.486;2022-10-13T08:20:58;11.20;99.90
9305;DHT22;4690;52.422;13.486;2022-10-13T08:23:26;11.30;99.90
9305;DHT22;4690;52.422;13.486;2022-10-13T08:25:51;11.30;99.90
9305;DHT22;4690;52.422;13.486;2022-10-13T08:28:19;11.20;99.90
9305;DHT22;4690;52.422;13.486;2022-10-13T08:30:47;11.30;99.90
9305;DHT22;4690;52.422;13.486;2022-10-13T08:33:14;11.50;99.90
9305;DHT22;4690;52.422;13.486;2022-10-13T08:35:40;11.80;99.90
9305;DHT22;4690;52.422;13.486;2022-10-13T08:38:07;11.80;99.90
9305;DHT22;4690;52.422;13.486;2022-10-13T08:40:33;12.00;99.90
9305;DHT22;4690;52.422;13.486;2022-10-13T08:42:59;12.10;99.90
9305;DHT22;4690;52.422;13.486;2022-10-13T08:45:28;12.00;99.90
9305;DHT22;4690;52.422;13.486;2022-10-13T08:47:58;11.80;99.90
9305;DHT22;4690;52.422;13.486;2022-10-13T08:50:31;11.80;99.90
9305;DHT22;4690;52.422;13.486;2022-10-13T08:53:11;11.80;99.90
9305;DHT22;4690;52.422;13.486;2022-10-13T08:58:51;12.20;99.90
9305;DHT22;4690;52.422;13.486;2022-10-13T09:01:33;12.20;99.90
9305;DHT22;4690;52.422;13.486;2022-10-13T09:06:57;12.30;99.90
9305;DHT22;4690;52.422;13.486;2022-10-13T09:09:28;12.40;99.90
9305;DHT22;4690;52.422;13.486;2022-10-13T09:11:53;12.50;99.90
9305;DHT22;4690;52.422;13.486;2022-10-13T09:14:31;12.50;99.90
9305;DHT22;4690;52.422;13.486;2022-10-13T09:17:19;12.60;99.90
9305;DHT22;4690;52.422;13.486;2022-10-13T09:19:58;12.70;99.90
9305;DHT22;4690;52.422;13.486;2022-10-13T09:22:33;12.70;99.90
9305;DHT22;4690;52.422;13.486;2022-10-13T09:27:54;12.80;99.90
9305;DHT22;4690;52.422;13.486;2022-10-13T09:35:39;12.90;99.90
9305;DHT22;4690;52.422;13.486;2022-10-13T09:38:18;13.00;99.90
9305;DHT22;4690;52.422;13.486;2022-10-13T09:49:43;13.10;99.90
9305;DHT22;4690;52.422;13.486;2022-10-13T09:54:45;13.20;99.90
9305;DHT22;4690;52.422;13.486;2022-10-13T10:03:14;13.20;99.90
9305;DHT22;4690;52.422;13.486;2022-10-13T10:05:56;13.30;99.90
9305;DHT22;4690;52.422;13.486;2022-10-13T10:08:54;13.30;99.90
9305;DHT22;4690;52.422;13.486;2022-10-13T10:11:31;13.30;99.90
9305;DHT22;4690;52.422;13.486;2022-10-13T10:39:45;14.10;99.90
9305;DHT22;4690;52.422;13.486;2022-10-13T10:45:38;14.40;99.90
9305;DHT22;4690;52.422;13.486;2022-10-13T10:48:44;14.50;99.90
9305;DHT22;4690;52.422;13.486;2022-10-13T10:51:12;14.60;99.90
9305;DHT22;4690;52.422;13.486;2022-10-13T10:53:51;14.70;99.90
9305;DHT22;4690;52.422;13.486;2022-10-13T11:12:21;15.30;99.90
9305;DHT22;4690;52.422;13.486;2022-10-13T11:17:27;15.60;99.90
9305;DHT22;4690;52.422;13.486;2022-10-13T11:19:55;16.00;99.90
9305;DHT22;4690;52.422;13.486;2022-10-13T11:22:24;16.20;99.90
9305;DHT22;4690;52.422;13.486;2022-10-13T11:25:03;16.10;99.90
9305;DHT22;4690;52.422;13.486;2022-10-13T11:30:54;16.00;99.90
9305;DHT22;4690;52.422;13.486;2022-10-13T11:41:42;16.30;99.90
9305;DHT22;4690;52.422;13.486;2022-10-13T11:44:33;16.30;99.90
9305;DHT22;4690;52.422;13.486;2022-10-13T11:47:32;16.40;99.90
9305;DHT22;4690;52.422;13.486;2022-10-13T11:53:23;16.50;99.90
9305;DHT22;4690;52.422;13.486;2022-10-13T11:55:57;16.60;99.90
9305;DHT22;4690;52.422;13.486;2022-10-13T11:58:31;16.60;99.90
9305;DHT22;4690;52.422;13.486;2022-10-13T12:01:12;16.70;99.90
9305;DHT22;4690;52.422;13.486;2022-10-13T12:03:42;16.80;99.90
9305;DHT22;4690;52.422;13.486;2022-10-13T12:06:30;16.90;99.90
9305;DHT22;4690;52.422;13.486;2022-10-13T12:09:17;16.70;99.90
9305;DHT22;4690;52.422;13.486;2022-10-13T12:11:45;16.70;99.90
9305;DHT22;4690;52.422;13.486;2022-10-13T12:14:29;16.60;99.90
9305;DHT22;4690;52.422;13.486;2022-10-13T12:16:59;16.60;99.90
9305;DHT22;4690;52.422;13.486;2022-10-13T12:19:30;16.60;99.90
9305;DHT22;4690;52.422;13.486;2022-10-13T12:21:58;16.60;99.90
9305;DHT22;4690;52.422;13.486;2022-10-13T12:24:28;16.60;99.90
9305;DHT22;4690;52.422;13.486;2022-10-13T12:26:55;16.50;99.90
9305;DHT22;4690;52.422;13.486;2022-10-13T12:29:27;16.40;99.90
9305;DHT22;4690;52.422;13.486;2022-10-13T12:31:54;16.40;99.90
9305;DHT22;4690;52.422;13.486;2022-10-13T12:34:28;16.50;99.90
9305;DHT22;4690;52.422;13.486;2022-10-13T12:37:03;16.50;99.90
9305;DHT22;4690;52.422;13.486;2022-10-13T12:39:38;16.50;99.90
9305;DHT22;4690;52.422;13.486;2022-10-13T12:42:06;16.60;99.90
9305;DHT22;4690;52.422;13.486;2022-10-13T12:44:37;16.60;99.90
9305;DHT22;4690;52.422;13.486;2022-10-13T12:47:03;16.50;99.90
9305;DHT22;4690;52.422;13.486;2022-10-13T12:49:32;16.40;99.90
9305;DHT22;4690;52.422;13.486;2022-10-13T12:52:12;16.30;99.90
9305;DHT22;4690;52.422;13.486;2022-10-13T12:57:36;16.30;99.90
9305;DHT22;4690;52.422;13.486;2022-10-13T13:02:58;16.10;99.90
9305;DHT22;4690;52.422;13.486;2022-10-13T13:08:24;16.10;99.90
9305;DHT22;4690;52.422;13.486;2022-10-13T13:10:55;16.10;99.90
9305;DHT22;4690;52.422;13.486;2022-10-13T13:13:23;16.20;99.90
9305;DHT22;4690;52.422;13.486;2022-10-13T13:15:50;16.20;99.90
9305;DHT22;4690;52.422;13.486;2022-10-13T13:18:32;16.20;99.90
9305;DHT22;4690;52.422;13.486;2022-10-13T13:21:03;16.20;99.90
9305;DHT22;4690;52.422;13.486;2022-10-13T13:23:39;16.20;99.90
9305;DHT22;4690;52.422;13.486;2022-10-13T13:28:46;16.00;99.90
9305;DHT22;4690;52.422;13.486;2022-10-13T13:31:12;16.10;99.90
9305;DHT22;4690;52.422;13.486;2022-10-13T13:33:41;16.10;99.90
9305;DHT22;4690;52.422;13.486;2022-10-13T13:36:16;16.10;99.90
9305;DHT22;4690;52.422;13.486;2022-10-13T13:38:43;16.10;99.90
9305;DHT22;4690;52.422;13.486;2022-10-13T13:41:10;16.10;99.90
9305;DHT22;4690;52.422;13.486;2022-10-13T13:43:37;16.10;99.90
9305;DHT22;4690;52.422;13.486;2022-10-13T13:46:04;16.10;99.90
9305;DHT22;4690;52.422;13.486;2022-10-13T13:48:31;16.10;99.90
9305;DHT22;4690;52.422;13.486;2022-10-13T13:50:58;16.00;99.90
9305;DHT22;4690;52.422;13.486;2022-10-13T13:53:24;16.10;99.90
9305;DHT22;4690;52.422;13.486;2022-10-13T13:55:49;16.10;99.90
9305;DHT22;4690;52.422;13.486;2022-10-13T13:58:16;16.20;99.90
9305;DHT22;4690;52.422;13.486;2022-10-13T14:00:41;16.20;99.90
9305;DHT22;4690;52.422;13.486;2022-10-13T14:03:07;16.20;99.90
9305;DHT22;4690;52.422;13.486;2022-10-13T14:05:33;16.30;99.90
9305;DHT22;4690;52.422;13.486;2022-10-13T14:08:02;16.40;99.90
9305;DHT22;4690;52.422;13.486;2022-10-13T14:10:28;16.50;99.90
9305;DHT22;4690;52.422;13.486;2022-10-13T14:12:54;16.70;99.90
9305;DHT22;4690;52.422;13.486;2022-10-13T14:15:19;16.90;99.90
9305;DHT22;4690;52.422;13.486;2022-10-13T14:17:45;17.00;99.90
9305;DHT22;4690;52.422;13.486;2022-10-13T14:20:11;17.10;99.90
9305;DHT22;4690;52.422;13.486;2022-10-13T14:22:37;17.10;99.90
9305;DHT22;4690;52.422;13.486;2022-10-13T14:25:04;17.10;99.90
9305;DHT22;4690;52.422;13.486;2022-10-13T14:27:32;16.90;99.90
9305;DHT22;4690;52.422;13.486;2022-10-13T14:29:58;16.90;99.90
9305;DHT22;4690;52.422;13.486;2022-10-13T14:32:25;16.90;99.90
9305;DHT22;4690;52.422;13.486;2022-10-13T14:34:52;16.70;99.90
9305;DHT22;4690;52.422;13.486;2022-10-13T14:37:17;16.60;99.90
9305;DHT22;4690;52.422;13.486;2022-10-13T14:39:43;16.50;99.90
9305;DHT22;4690;52.422;13.486;2022-10-13T14:42:09;16.30;99.90
9305;DHT22;4690;52.422;13.486;2022-10-13T14:44:34;16.30;99.90
9305;DHT22;4690;52.422;13.486;2022-10-13T14:47:00;16.20;99.90
9305;DHT22;4690;52.422;13.486;2022-10-13T14:49:26;16.20;99.90
9305;DHT22;4690;52.422;13.486;2022-10-13T14:51:51;16.10;99.90
9305;DHT22;4690;52.422;13.486;2022-10-13T14:54:17;16.10;99.90
9305;DHT22;4690;52.422;13.486;2022-10-13T14:56:43;16.10;99.90
9305;DHT22;4690;52.422;13.486;2022-10-13T14:59:10;16.10;99.90
9305;DHT22;4690;52.422;13.486;2022-10-13T15:01:37;16.10;99.90
9305;DHT22;4690;52.422;13.486;2022-10-13T15:04:04;16.20;99.90
9305;DHT22;4690;52.422;13.486;2022-10-13T15:06:30;16.20;99.90
9305;DHT22;4690;52.422;13.486;2022-10-13T15:08:57;16.20;99.90
9305;DHT22;4690;52.422;13.486;2022-10-13T15:11:23;16.10;99.90
9305;DHT22;4690;52.422;13.486;2022-10-13T15:13:50;16.10;99.90
9305;DHT22;4690;52.422;13.486;2022-10-13T15:16:19;16.00;99.90
9305;DHT22;4690;52.422;13.486;2022-10-13T15:18:49;16.00;99.90
9305;DHT22;4690;52.422;13.486;2022-10-13T15:21:15;15.90;99.90
9305;DHT22;4690;52.422;13.486;2022-10-13T15:23:42;15.90;99.90
9305;DHT22;4690;52.422;13.486;2022-10-13T15:26:10;15.80;99.90
9305;DHT22;4690;52.422;13.486;2022-10-13T15:28:39;15.70;99.90
9305;DHT22;4690;52.422;13.486;2022-10-13T15:31:06;15.60;99.90
9305;DHT22;4690;52.422;13.486;2022-10-13T15:33:33;15.50;99.90
9305;DHT22;4690;52.422;13.486;2022-10-13T15:35:59;15.50;99.90
9305;DHT22;4690;52.422;13.486;2022-10-13T15:38:25;15.40;99.90
9305;DHT22;4690;52.422;13.486;2022-10-13T15:40:52;15.30;99.90
9305;DHT22;4690;52.422;13.486;2022-10-13T15:43:23;15.20;99.90
9305;DHT22;4690;52.422;13.486;2022-10-13T15:45:58;15.10;99.90
9305;DHT22;4690;52.422;13.486;2022-10-13T15:48:26;14.90;99.90
9305;DHT22;4690;52.422;13.486;2022-10-13T15:50:52;14.80;99.90
9305;DHT22;4690;52.422;13.486;2022-10-13T15:53:17;14.80;99.90
9305;DHT22;4690;52.422;13.486;2022-10-13T15:55:44;14.70;99.90
9305;DHT22;4690;52.422;13.486;2022-10-13T15:58:11;14.60;99.90
9305;DHT22;4690;52.422;13.486;2022-10-13T16:00:38;14.50;99.90
9305;DHT22;4690;52.422;13.486;2022-10-13T16:03:04;14.40;99.90
9305;DHT22;4690;52.422;13.486;2022-10-13T16:05:30;14.30;99.90
9305;DHT22;4690;52.422;13.486;2022-10-13T16:07:56;14.30;99.90
9305;DHT22;4690;52.422;13.486;2022-10-13T16:10:22;14.20;99.90
9305;DHT22;4690;52.422;13.486;2022-10-13T16:12:48;14.20;99.90
9305;DHT22;4690;52.422;13.486;2022-10-13T16:15:14;14.10;99.90
9305;DHT22;4690;52.422;13.486;2022-10-13T16:17:42;14.00;99.90
9305;DHT22;4690;52.422;13.486;2022-10-13T16:20:11;14.00;99.90
9305;DHT22;4690;52.422;13.486;2022-10-13T16:22:37;13.90;99.90
9305;DHT22;4690;52.422;13.486;2022-10-13T16:25:03;13.90;99.90
9305;DHT22;4690;52.422;13.486;2022-10-13T16:27:29;13.90;99.90
9305;DHT22;4690;52.422;13.486;2022-10-13T16:29:55;13.90;99.90
9305;DHT22;4690;52.422;13.486;2022-10-13T16:32:20;13.90;99.90
9305;DHT22;4690;52.422;13.486;2022-10-13T16:34:46;13.80;99.90
9305;DHT22;4690;52.422;13.486;2022-10-13T16:37:12;13.60;99.90
9305;DHT22;4690;52.422;13.486;2022-10-13T16:39:38;13.50;99.90
9305;DHT22;4690;52.422;13.486;2022-10-13T16:42:04;13.40;99.90
9305;DHT22;4690;52.422;13.486;2022-10-13T16:44:29;13.30;99.90
9305;DHT22;4690;52.422;13.486;2022-10-13T16:46:55;13.20;99.90
9305;DHT22;4690;52.422;13.486;2022-10-13T16:49:22;13.10;99.90
9305;DHT22;4690;52.422;13.486;2022-10-13T16:51:48;13.00;99.90
9305;DHT22;4690;52.422;13.486;2022-10-13T16:54:14;12.90;99.90
9305;DHT22;4690;52.422;13.486;2022-10-13T16:56:39;12.80;99.90
9305;DHT22;4690;52.422;13.486;2022-10-13T16:59:05;12.70;99.90
9305;DHT22;4690;52.422;13.486;2022-10-13T17:01:33;12.70;99.90
9305;DHT22;4690;52.422;13.486;2022-10-13T17:04:01;12.60;99.90
9305;DHT22;4690;52.422;13.486;2022-10-13T17:06:28;12.50;99.90
9305;DHT22;4690;52.422;13.486;2022-10-13T17:08:57;12.50;99.90
9305;DHT22;4690;52.422;13.486;2022-10-13T17:11:27;12.50;99.90
9305;DHT22;4690;52.422;13.486;2022-10-13T17:13:55;12.40;99.90
9305;DHT22;4690;52.422;13.486;2022-10-13T17:16:22;12.40;99.90
9305;DHT22;4690;52.422;13.486;2022-10-13T17:18:48;12.40;99.90
9305;DHT22;4690;52.422;13.486;2022-10-13T17:21:15;12.40;99.90
9305;DHT22;4690;52.422;13.486;2022-10-13T17:23:42;12.40;99.90
9305;DHT22;4690;52.422;13.486;2022-10-13T17:26:10;12.30;99.90
9305;DHT22;4690;52.422;13.486;2022-10-13T17:28:38;12.30;99.90
9305;DHT22;4690;52.422;13.486;2022-10-13T17:31:16;12.20;99.90
9305;DHT22;4690;52.422;13.486;2022-10-13T17:33:44;12.30;99.90
9305;DHT22;4690;52.422;13.486;2022-10-13T17:38:38;12.10;99.90
9305;DHT22;4690;52.422;13.486;2022-10-13T17:41:06;12.20;99.90
9305;DHT22;4690;52.422;13.486;2022-10-13T17:43:34;12.10;99.90
9305;DHT22;4690;52.422;13.486;2022-10-13T17:46:10;12.10;99.90
9305;DHT22;4690;52.422;13.486;2022-10-13T17:48:40;12.00;99.90
9305;DHT22;4690;52.422;13.486;2022-10-13T17:51:08;11.90;99.90
9305;DHT22;4690;52.422;13.486;2022-10-13T17:53:37;11.90;99.90
9305;DHT22;4690;52.422;13.486;2022-10-13T17:56:10;11.90;99.90
9305;DHT22;4690;52.422;13.486;2022-10-13T17:58:39;11.80;99.90
9305;DHT22;4690;52.422;13.486;2022-10-13T18:01:07;11.70;99.90
9305;DHT22;4690;52.422;13.486;2022-10-13T18:03:42;11.70;99.90
9305;DHT22;4690;52.422;13.486;2022-10-13T18:06:09;11.60;99.90
9305;DHT22;4690;52.422;13.486;2022-10-13T18:08:36;11.50;99.90
9305;DHT22;4690;52.422;13.486;2022-10-13T18:11:06;11.40;99.90
9305;DHT22;4690;52.422;13.486;2022-10-13T18:13:34;11.40;99.90
9305;DHT22;4690;52.422;13.486;2022-10-13T18:16:05;11.30;99.90
9305;DHT22;4690;52.422;13.486;2022-10-13T18:18:33;11.20;99.90